Time;durP1;ratioP1;P1;durP2;ratioP2;P2;SDS_P1;SDS_P2;PMS_P1;PMS_P2;Temp;Humidity;BMP_temperature;BMP_pressure;BME280_temperature;BME280_humidity;BME280_pressure;Samples;Min_cycle;Max_cycle;Signal;HPM_P1;HPM_P2
2023/04/12 16:38:29;;;;;;;2.05;0.75;;;;;;;;;;6268908;22;884363;-69
2023/04/12 16:40:57;;;;;;;0.60;0.60;;;;;;;;;;6198218;22;1195501;-68
2023/04/12 16:43:24;;;;;;;0.38;0.38;;;;;;;;;;6247014;22;20628;-68
2023/04/12 16:45:51;;;;;;;0.45;0.43;;;;;;;;;;6247103;22;20202;-68
2023/04/12 16:48:21;;;;;;;0.50;0.50;;;;;;;;;;6219644;22;20231;31
2023/04/12 16:50:48;;;;;;;0.40;0.40;;;;;;;;;;6186833;23;20397;-71
2023/04/12 16:53:15;;;;;;;0.40;0.40;;;;;;;;;;6188803;23;20185;-79
2023/04/12 16:55:45;;;;;;;0.40;0.40;;;;;;;;;;6188484;23;20653;-77
2023/04/12 16:58:13;;;;;;;0.90;0.90;;;;;;;;;;6188334;23;20208;-77
2023/04/12 17:00:41;;;;;;;0.77;0.77;;;;;;;;;;6157792;23;20677;-76
2023/04/12 17:03:10;;;;;;;0.60;0.60;;;;;;;;;;6157173;23;20184;-79
2023/04/12 17:05:37;;;;;;;0.40;0.40;;;;;;;;;;6156805;23;20174;-76
2023/04/12 17:08:05;;;;;;;0.50;0.50;;;;;;;;;;6156754;23;20178;-77
2023/04/12 17:10:32;;;;;;;0.50;0.50;;;;;;;;;;6156918;23;20201;-75
2023/04/12 17:13:01;;;;;;;0.40;0.40;;;;;;;;;;6156128;23;20185;-76
2023/04/12 17:15:29;;;;;;;0.40;0.40;;;;;;;;;;6156514;23;20260;-74
2023/04/12 17:18:01;;;;;;;0.30;0.30;;;;;;;;;;6156391;23;20205;-73
2023/04/12 17:20:29;;;;;;;0.40;0.40;;;;;;;;;;6156521;23;20258;-76
2023/04/12 17:22:56;;;;;;;0.50;0.50;;;;;;;;;;6156423;23;20214;-75
2023/04/12 17:25:23;;;;;;;0.50;0.50;;;;;;;;;;6156545;23;20205;-74
2023/04/12 17:27:50;;;;;;;0.30;0.30;;;;;;;;;;6156142;23;20628;-77
2023/04/12 17:30:18;;;;;;;0.40;0.40;;;;;;;;;;6156972;23;20501;-75
2023/04/12 17:32:47;;;;;;;0.63;0.50;;;;;;;;;;6156349;23;20512;-75
2023/04/12 17:35:14;;;;;;;1.17;0.88;;;;;;;;;;6156387;23;20173;-74
2023/04/12 17:37:41;;;;;;;0.52;0.52;;;;;;;;;;6156613;23;20174;-74
2023/04/12 17:40:10;;;;;;;0.50;0.50;;;;;;;;;;6156541;23;20204;-75
2023/04/12 17:42:37;;;;;;;0.47;0.40;;;;;;;;;;6156553;23;20239;-76
2023/04/12 17:45:05;;;;;;;0.50;0.50;;;;;;;;;;6156842;23;20186;-74
2023/04/12 17:47:33;;;;;;;0.40;0.40;;;;;;;;;;6156543;23;20244;-75
2023/04/12 17:50:00;;;;;;;0.63;0.63;;;;;;;;;;6176904;23;20209;-76
2023/04/12 17:52:27;;;;;;;0.50;0.50;;;;;;;;;;6187391;23;20177;-78
2023/04/12 17:54:55;;;;;;;0.60;0.60;;;;;;;;;;6191216;23;20168;-76
2023/04/12 17:57:23;;;;;;;0.50;0.50;;;;;;;;;;6192028;23;20188;-77
2023/04/12 17:59:50;;;;;;;0.52;0.52;;;;;;;;;;6191059;23;20201;-77
2023/04/12 18:02:17;;;;;;;0.63;0.50;;;;;;;;;;6187879;23;20626;-77
2023/04/12 18:04:47;;;;;;;0.50;0.50;;;;;;;;;;6186062;23;20181;-77
2023/04/12 18:07:14;;;;;;;0.50;0.50;;;;;;;;;;6185916;23;20607;-76
2023/04/12 18:09:43;;;;;;;0.60;0.60;;;;;;;;;;6185819;23;20189;-76
2023/04/12 18:12:10;;;;;;;0.60;0.60;;;;;;;;;;6185992;23;20263;-76
2023/04/12 18:14:39;;;;;;;0.60;0.60;;;;;;;;;;6185972;23;20185;-76
2023/04/12 18:17:06;;;;;;;0.55;0.55;;;;;;;;;;6185547;23;20539;-76
2023/04/12 18:19:33;;;;;;;0.40;0.40;;;;;;;;;;6185520;23;20205;-76
2023/04/12 18:22:01;;;;;;;0.30;0.30;;;;;;;;;;6186500;23;20181;-75
2023/04/12 18:24:28;;;;;;;0.40;0.40;;;;;;;;;;6187412;23;20177;-75
2023/04/12 18:26:57;;;;;;;0.50;0.50;;;;;;;;;;6188166;23;20177;-75
2023/04/12 18:29:24;;;;;;;0.40;0.40;;;;;;;;;;6187948;23;20268;-73
2023/04/12 18:31:52;;;;;;;0.30;0.30;;;;;;;;;;6188145;23;20196;-74
2023/04/12 18:34:19;;;;;;;0.40;0.40;;;;;;;;;;6187444;23;20538;-75
2023/04/12 18:36:46;;;;;;;1.17;0.40;;;;;;;;;;6188935;23;20177;-76
2023/04/12 18:39:15;;;;;;;0.43;0.40;;;;;;;;;;6187846;23;20201;-76
2023/04/12 18:41:42;;;;;;;0.40;0.40;;;;;;;;;;6188081;23;20178;-76
2023/04/12 18:44:10;;;;;;;0.40;0.40;;;;;;;;;;6187514;23;20178;-76
2023/04/12 18:46:37;;;;;;;0.40;0.40;;;;;;;;;;6188028;23;20181;-76
2023/04/12 18:49:05;;;;;;;1.00;0.30;;;;;;;;;;6187413;23;20681;-76
2023/04/12 18:51:32;;;;;;;0.30;0.30;;;;;;;;;;6188280;23;20180;-76
2023/04/12 18:54:00;;;;;;;0.30;0.30;;;;;;;;;;6187524;23;20733;-77
2023/04/12 18:56:28;;;;;;;0.30;0.30;;;;;;;;;;6188123;23;20181;-75
2023/04/12 18:58:56;;;;;;;0.40;0.40;;;;;;;;;;6187624;23;20194;-76
2023/04/12 19:01:23;;;;;;;0.40;0.40;;;;;;;;;;6187637;23;20197;-76
2023/04/12 19:03:50;;;;;;;0.30;0.30;;;;;;;;;;6187186;23;20174;-76
2023/04/12 19:06:18;;;;;;;0.40;0.40;;;;;;;;;;6187692;23;20181;-76
2023/04/12 19:08:45;;;;;;;0.40;0.40;;;;;;;;;;6187491;23;20201;-71
2023/04/12 19:11:12;;;;;;;0.38;0.38;;;;;;;;;;6187813;23;20174;-76
2023/04/12 19:13:40;;;;;;;0.40;0.40;;;;;;;;;;6188015;23;20178;-77
2023/04/12 19:16:07;;;;;;;0.40;0.40;;;;;;;;;;6187394;23;20181;-77
2023/04/12 19:18:34;;;;;;;0.40;0.40;;;;;;;;;;6187739;23;20486;-76
2023/04/12 19:21:02;;;;;;;0.40;0.40;;;;;;;;;;6187484;23;20225;-77
2023/04/12 19:23:29;;;;;;;0.40;0.40;;;;;;;;;;6187784;23;20178;-77
2023/04/12 19:25:58;;;;;;;0.32;0.32;;;;;;;;;;6188276;23;20173;-78
2023/04/12 19:28:25;;;;;;;0.32;0.30;;;;;;;;;;6188085;23;20631;-78
2023/04/12 19:30:54;;;;;;;0.30;0.30;;;;;;;;;;6187851;23;20478;-77
2023/04/12 19:33:21;;;;;;;0.35;0.30;;;;;;;;;;6187827;23;20181;-77
2023/04/12 19:35:48;;;;;;;0.40;0.40;;;;;;;;;;6186920;23;20179;-77
2023/04/12 19:38:15;;;;;;;0.30;0.30;;;;;;;;;;6187374;23;20180;-77
2023/04/12 19:40:43;;;;;;;0.35;0.35;;;;;;;;;;6188302;23;20193;-77
2023/04/12 19:43:12;;;;;;;1.00;0.40;;;;;;;;;;6187450;23;20180;-77
2023/04/12 19:45:40;;;;;;;0.35;0.35;;;;;;;;;;6188089;23;20212;-77
2023/04/12 19:48:08;;;;;;;0.32;0.32;;;;;;;;;;6191009;23;20184;-78
2023/04/12 19:50:35;;;;;;;0.82;0.38;;;;;;;;;;6189835;23;20198;-79
2023/04/12 19:53:03;;;;;;;0.30;0.30;;;;;;;;;;6188628;23;20201;-77
2023/04/12 19:55:30;;;;;;;0.40;0.40;;;;;;;;;;6187892;23;20189;-76
2023/04/12 19:57:58;;;;;;;0.40;0.40;;;;;;;;;;6187708;23;20177;-75
2023/04/12 20:00:26;;;;;;;0.40;0.40;;;;;;;;;;6187215;23;20200;-76
2023/04/12 20:02:54;;;;;;;0.40;0.40;;;;;;;;;;6187484;23;20174;-77
2023/04/12 20:05:22;;;;;;;0.45;0.45;;;;;;;;;;6187159;23;20181;-77
2023/04/12 20:07:51;;;;;;;0.40;0.40;;;;;;;;;;6187292;23;20178;-78
2023/04/12 20:10:19;;;;;;;0.40;0.30;;;;;;;;;;6186682;23;20535;-77
2023/04/12 20:12:46;;;;;;;0.50;0.50;;;;;;;;;;6186616;23;20533;-77
2023/04/12 20:15:13;;;;;;;0.40;0.40;;;;;;;;;;6187074;23;20177;-77
2023/04/12 20:17:41;;;;;;;0.40;0.40;;;;;;;;;;6186696;23;20206;-77
2023/04/12 20:20:09;;;;;;;0.40;0.40;;;;;;;;;;6186471;23;20674;-75
2023/04/12 20:22:38;;;;;;;0.40;0.40;;;;;;;;;;6187298;23;20173;-76
2023/04/12 20:25:05;;;;;;;0.38;0.38;;;;;;;;;;6187041;23;20187;-76
2023/04/12 20:27:32;;;;;;;0.40;0.40;;;;;;;;;;6186797;23;20177;-77
2023/04/12 20:30:00;;;;;;;0.40;0.40;;;;;;;;;;6186478;23;20634;-78
2023/04/12 20:32:28;;;;;;;0.45;0.45;;;;;;;;;;6187002;23;20173;-76
2023/04/12 20:34:55;;;;;;;0.65;0.40;;;;;;;;;;6187068;23;20247;-76
2023/04/12 20:37:22;;;;;;;0.40;0.40;;;;;;;;;;6186433;23;20725;-76
2023/04/12 20:39:51;;;;;;;0.30;0.30;;;;;;;;;;6186486;23;20194;-77
2023/04/12 20:42:19;;;;;;;0.40;0.40;;;;;;;;;;6186809;23;20216;-76
2023/04/12 20:44:47;;;;;;;0.32;0.32;;;;;;;;;;6186515;23;20694;-76
2023/04/12 20:47:14;;;;;;;0.30;0.30;;;;;;;;;;6186937;23;20173;-76
2023/04/12 20:49:42;;;;;;;0.35;0.35;;;;;;;;;;6186908;23;20236;-75
2023/04/12 20:52:09;;;;;;;0.30;0.30;;;;;;;;;;6187262;23;20184;-77
2023/04/12 20:54:37;;;;;;;0.43;0.40;;;;;;;;;;6187256;23;20208;-76
2023/04/12 20:57:06;;;;;;;0.50;0.50;;;;;;;;;;6187315;23;20178;-76
2023/04/12 20:59:34;;;;;;;0.30;0.30;;;;;;;;;;6187584;23;20296;-76
2023/04/12 21:02:01;;;;;;;0.50;0.50;;;;;;;;;;6188346;23;20197;-77
2023/04/12 21:04:30;;;;;;;0.70;0.70;;;;;;;;;;6189616;23;20503;-76
2023/04/12 21:06:57;;;;;;;0.60;0.60;;;;;;;;;;6188677;23;20240;-76
2023/04/12 21:09:25;;;;;;;0.60;0.60;;;;;;;;;;6186332;23;20197;-77
2023/04/12 21:11:53;;;;;;;0.50;0.50;;;;;;;;;;6185925;23;20603;-77
2023/04/12 21:14:22;;;;;;;1.17;0.60;;;;;;;;;;6186400;23;20177;-77
2023/04/12 21:16:49;;;;;;;0.40;0.40;;;;;;;;;;6186254;23;20567;-77
2023/04/12 21:19:17;;;;;;;0.30;0.30;;;;;;;;;;6186178;23;20291;-77
2023/04/12 21:21:44;;;;;;;0.40;0.40;;;;;;;;;;6186279;23;20216;-77
2023/04/12 21:24:12;;;;;;;0.40;0.40;;;;;;;;;;6186347;23;20181;-77
2023/04/12 21:26:39;;;;;;;0.30;0.30;;;;;;;;;;6186365;23;20173;-77
2023/04/12 21:29:06;;;;;;;1.60;0.47;;;;;;;;;;6186592;23;20197;-77
2023/04/12 21:31:37;;;;;;;1.27;0.40;;;;;;;;;;6185879;23;20253;-77
2023/04/12 21:34:06;;;;;;;0.30;0.30;;;;;;;;;;6186076;23;20161;-77
2023/04/12 21:36:33;;;;;;;0.30;0.30;;;;;;;;;;6187475;23;20268;-76
2023/04/12 21:39:00;;;;;;;0.40;0.40;;;;;;;;;;6185916;23;20576;-77
2023/04/12 21:41:28;;;;;;;0.40;0.40;;;;;;;;;;6185664;23;20193;-76
2023/04/12 21:43:55;;;;;;;0.30;0.30;;;;;;;;;;6186127;23;20189;-76
